Henderson, Minnesota
Current Conditions -  °F | °C
As of 1:54 AM on Friday 19 Dec 2014 (Local Time) from KGYL Reporting Station
Overcast Overcast  
Wind Chill: 15°   Ceiling: 6000
Heat Index: 23°   Visibility: 7mi
Dew Point: 20°   Wind: 6mph
Humidity: 91%   Direction: 120°ESE
Pressure: 30.24"   Gusts: NA
Location:  44.53°N, 93.91°W
Report Text: KGYL 190754Z AUTO 12005KT 7SM SCT045 BKN060 OVC085 M05/M06 A3024 RMK AO2 T10521065
Loading
Personal Weather Stations






























Interactive Weather Map New forecast layout! Learn more

10-Day Weather Forecast

Advertisements
Track Severe Weather on mobile